Tiempo atmosférico en la estación meteorológica de Arroyo Del Ojanco, Jaén (580 m.)



Fecha
DESCASC
Temp. máxima en grados centígrados (hora)
DESCASC
Temp. mínima en grados centígrados (hora)
DESCASC
Temp. media en grados centígrados
DESCASC
Racha de viento máxima en m/sg (hora)
DESCASC
Velocidad máxima media en intervalos de 10 minutos(hora)
DESCASC
Precipitaciones diarias en mm
DESCASC
Precipitaciones de 00:00 a 06:00 en mm
DESCASC
Precipitaciones de 06:00 a 12:00 en mm
DESCASC
Precipitaciones de 12:00 a 18:00 en mm
DESCASC
Precipitaciones de 18:00 a 24:00 en mm
DESCASC
13-01-2021 14.8 (16:20) -2.3 (08:10) 6.3 -- (--) -- (--) 0 0 0 0 0
12-01-2021 10.8 (16:40) -3.6 (08:30) 3.6 -- (--) -- (--) 0 0 0 0 0
11-01-2021 9.9 (16:10) -1.5 (09:10) 4.2 -- (--) -- (--) 0 0 0 0 0
10-01-2021 11 (16:40) 0 (08:40) 5.5 -- (--) -- (--) 0 0 0 0 0
09-01-2021 7.3 (00:30) 0 (00:00) 3.7 -- (--) -- (--) 14.1 9 5.1 0 0
08-01-2021 10.4 (16:50) 3 (00:00) 6.7 -- (--) -- (--) 7.7 2.8 0.5 0 4.4
07-01-2021 5.2 (00:00) 3.2 (00:00) 4.2 -- (--) -- (--) 6.6 0.7 1 4.1 0.8
06-01-2021 8.5 (16:00) 0 (00:00) 4.3 -- (--) -- (--) 0.1 0 0 0 0.1
05-01-2021 8.2 (15:00) -0.4 (00:00) 3.9 -- (--) -- (--) 0 0 0 0 0
04-01-2021 4.6 (16:40) 1 (00:00) 2.8 -- (--) -- (--) 0 0 0 0 0
03-01-2021 7.5 (15:50) -3.5 (-00:0) 2 -- (--) -- (--) 0 0 0 0 0
02-01-2021 6.3 (14:40) 0.7 (00:00) 3.5 -- (--) -- (--) 0 0 0 0 0
01-01-2021 6.7 (14:40) 3.3 (00:00) 5 -- (--) -- (--) 4.2 3.6 0.6 0 0
31-12-2020 8.7 (16:10) -2.8 (-00:0) 2.9 -- (--) -- (--) 0 0 0 0 0
30-12-2020 9.3 (16:50) -0.6 (-00:0) 4.4 -- (--) -- (--) 0 0 0 0 0
29-12-2020 6.7 (16:30) 4 (00:00) 5.3 -- (--) -- (--) 0.3 0 0 0.3 0
28-12-2020 11.8 (15:50) 4.2 (00:00) 8 -- (--) -- (--) 1.9 0 1.9 0 0
27-12-2020 10.8 (15:10) -3.1 (-00:0) 3.9 -- (--) -- (--) 0 0 0 0 0
26-12-2020 8.9 (15:50) -2.2 (-00:0) 3.3 -- (--) -- (--) 0 0 0 0 0
25-12-2020 11.7 (13:30) 2.2 (00:00) 6.9 -- (--) -- (--) 0 0 0 0 0
24-12-2020 16.8 (14:20) 7.5 (00:00) 12.1 -- (--) -- (--) 0 0 0 0 0
23-12-2020 17.6 (15:10) 5.1 (00:00) 11.4 -- (--) -- (--) 0 0 0 0 0
22-12-2020 20.2 (16:40) 5.3 (00:00) 12.8 -- (--) -- (--) 0 0 0 0 0
21-12-2020 16.7 (17:00) 3.6 (00:00) 10.2 -- (--) -- (--) 0 0 0 0 0
20-12-2020 16 (16:00) 7.3 (00:00) 11.7 -- (--) -- (--) 2.3 2.2 0.1 0 0
19-12-2020 13.1 (15:10) 5.4 (00:00) 9.3 -- (--) -- (--) 0.1 0 0 0 0.1
18-12-2020 16.8 (15:40) 5.9 (00:00) 11.3 -- (--) -- (--) 0 0 0 0 0

Gráficas

Temp. máximas Temp. mínimas Temp. medias Precipitaciones Rachas de viento máximas Velocidades máximas media en intervalos de 10 minutos

Datos horarios

Fecha y hora oficial Temperatura (ºC) Velocidad del viento (km/h) Dirección del viento Racha (km/h) Dirección de racha Precipitación (mm) Presión (hPa) Tendencia (hPa) Humedad (%)
2021-01-16 23:00:00 5.1 -- -- -- -- 0 951.3 0.6 63
2021-01-16 22:00:00 4.2 -- -- -- -- 0 951.1 -0.4 64
2021-01-16 21:00:00 7.8 -- -- -- -- 0 951 -0.3 54
2021-01-16 20:00:00 7.5 -- -- -- -- 0 950.7 -0.2 52
2021-01-16 19:00:00 9 -- -- -- -- 0 951.5 0.7 45
2021-01-16 18:00:00 13.3 -- -- -- -- 0 951.3 0.6 35
2021-01-16 17:00:00 14.7 -- -- -- -- 0 950.9 0 33
2021-01-16 16:00:00 14.3 -- -- -- -- 0 950.8 -0.2 36
2021-01-16 15:00:00 13.4 -- -- -- -- 0 950.7 -- 39
2021-01-16 14:00:00 11.9 -- -- -- -- 0 950.9 -- 42
2021-01-16 13:00:00 10.5 -- -- -- -- 0 951 -- 45
2021-01-16 12:00:00 7.6 -- -- -- -- 0 950.6 -- 60
2021-01-16 11:00:00 4.2 -- -- -- -- 0 949.7 -- 71
2021-01-16 10:00:00 1.6 -- -- -- -- 0 948.9 -- 81
2021-01-16 09:00:00 0 -- -- -- -- 0 948.4 -- 85
2021-01-16 08:00:00 0 -- -- -- -- 0 947.8 -- 86
2021-01-16 07:00:00 -0.6 -- -- -- -- 0 947.4 -- 88
2021-01-16 06:00:00 -0.8 -- -- -- -- 0 947.1 -- 88
2021-01-16 05:00:00 0.5 -- -- -- -- 0 947.4 -- 83
2021-01-16 04:00:00 0.3 -- -- -- -- 0 947.7 -- 85
2021-01-16 03:00:00 1.3 -- -- -- -- 0 947.7 -- 80
2021-01-16 02:00:00 0.9 -- -- -- -- 0 947.8 -- 79
2021-01-16 01:00:00 1.8 -- -- -- -- 0 948.1 -- 75
2021-01-16 00:00:00 2.4 -- -- -- -- 0 948.3 -- 74
2021-01-15 23:00:00 1.9 -- -- -- -- 0 948 -- 74
2021-01-15 22:00:00 3.2 -- -- -- -- 0 948.2 -- 67
2021-01-15 21:00:00 4.8 -- -- -- -- 0 948.3 -- 61
2021-01-15 20:00:00 6.9 -- -- -- -- 0 949.4 -- 55
2021-01-15 19:00:00 7.9 -- -- -- -- 0 949 -- 52
2021-01-15 18:00:00 10.9 -- -- -- -- 0 949.8 -- 44
2021-01-15 17:00:00 13.9 -- -- -- -- 0 949.8 -- 38
2021-01-15 16:00:00 13.9 -- -- -- -- 0 949.2 -- 38
2021-01-15 15:00:00 13.4 -- -- -- -- 0 949.3 -- 39
2021-01-15 14:00:00 12.5 -- -- -- -- 0 949.6 -- 45
2021-01-15 13:00:00 11 -- -- -- -- 0 950 -- 51
2021-01-15 12:00:00 8.6 -- -- -- -- 0 950.2 -- 61
2021-01-15 11:00:00 5.9 -- -- -- -- 0 949.2 -- 67
2021-01-15 10:00:00 1.3 -- -- -- -- 0 948 -- 81
2021-01-15 09:00:00 -0.9 -- -- -- -- 0 947.7 -- 88
2021-01-15 08:00:00 0 -- -- -- -- 0 947.6 -- 85
2021-01-15 07:00:00 -0.7 -- -- -- -- 0 947.2 -- 85
2021-01-15 06:00:00 -0.1 -- -- -- -- 0 947.4 -- 86
2021-01-15 05:00:00 -0.1 -- -- -- -- 0 947.7 -- 86
2021-01-15 04:00:00 -0.3 -- -- -- -- 0 947.9 -- 88
2021-01-15 03:00:00 0.5 -- -- -- -- 0 948.1 -- 85
2021-01-15 02:00:00 1.3 -- -- -- -- 0 948.2 -- 85
2021-01-15 01:00:00 1.8 -- -- -- -- 0 948.1 -- 86
2021-01-15 00:00:00 2.2 -- -- -- -- 0 948.9 -- 85
2021-01-14 23:00:00 3.6 -- -- -- -- 0 948.6 -- 80
2021-01-14 22:00:00 4.4 -- -- -- -- 0 948.5 -- 75
2021-01-14 21:00:00 6.1 -- -- -- -- 0 948.6 -- 68
2021-01-14 20:00:00 7.3 -- -- -- -- 0 948.7 -- 58
2021-01-14 19:00:00 9.8 -- -- -- -- 0 949.2 -- 50
2021-01-14 18:00:00 13.8 -- -- -- -- 0 949.1 -- 35
2021-01-14 17:00:00 15.2 -- -- -- -- 0 948.8 -- 33
2021-01-14 16:00:00 14.6 -- -- -- -- 0 948.6 -- 33
2021-01-14 15:00:00 13.3 -- -- -- -- 0 949 -- 37
2021-01-14 14:00:00 12.2 -- -- -- -- 0 948.9 -- 39
2021-01-14 13:00:00 10.2 -- -- -- -- 0 949.4 -- 48
2021-01-14 12:00:00 7.9 -- -- -- -- 0 949.4 -- 55
2021-01-14 11:00:00 4.2 -- -- -- -- 0 949.1 -- 68
2021-01-14 10:00:00 0.7 -- -- -- -- 0 948.3 -- 85
2021-01-14 09:00:00 -1.3 -- -- -- -- 0 948.2 -- 88
2021-01-14 08:00:00 -1 -- -- -- -- 0 948 -- 88
2021-01-14 07:00:00 -1.2 -- -- -- -- 0 948.1 -- 89
2021-01-14 06:00:00 -0.8 -- -- -- -- 0 948.1 -- 87
2021-01-14 05:00:00 -0.3 -- -- -- -- 0 948.3 -- 85
2021-01-14 04:00:00 0 -- -- -- -- 0 948.4 -- 82
2021-01-14 03:00:00 1.7 -- -- -- -- 0 949.1 -- 76
2021-01-14 02:00:00 1.4 -- -- -- -- 0 949.1 -- 75
2021-01-14 01:00:00 1.4 -- -- -- -- 0 949.5 -- 74
2021-01-14 00:00:00 2.5 -- -- -- -- 0 950.3 -- 69
2021-01-13 23:00:00 3.3 -- -- -- -- 0 950.3 -- 62
2021-01-13 22:00:00 4.5 -- -- -- -- 0 950.5 -- 55
2021-01-13 21:00:00 5.4 -- -- -- -- 0 950.6 -- 50
2021-01-13 20:00:00 7.1 -- -- -- -- 0 950.7 -- 45
2021-01-13 19:00:00 8.3 -- -- -- -- 0 950.9 -- 44
2021-01-13 18:00:00 12.9 -- -- -- -- 0 951.5 -- 35
2021-01-13 17:00:00 14.1 -- -- -- -- 0 951.2 -- 30
2021-01-13 16:00:00 14.1 -- -- -- -- 0 950.8 -- 30
2021-01-13 15:00:00 13.4 -- -- -- -- 0 951 -- 31
2021-01-13 14:00:00 12.5 -- -- -- -- 0 951.3 -- 31
2021-01-13 13:00:00 9.8 -- -- -- -- 0 951.7 -- 44
2021-01-13 12:00:00 7 -- -- -- -- -- 951.6 -- 50
2021-01-13 11:00:00 3.9 -- -- -- -- 0 950.9 -- 64
2021-01-13 10:00:00 0.6 -- -- -- -- 0 950.5 -- 77
2021-01-13 09:00:00 -1.9 0 Calma -- -- 0 949.8 -- 86
2021-01-13 08:00:00 -2.2 0 Calma -- -- 0 949.4 -- 85
2021-01-13 07:00:00 -1.7 0 Calma -- -- 0 949.1 -- 86
2021-01-13 06:00:00 -1.6 0 Calma -- -- 0 949.2 -- 85
2021-01-13 05:00:00 -1.3 0 Calma -- -- 0 949.3 -- 87
2021-01-13 04:00:00 -1.4 0 Calma -- -- 0 950.1 -- 86
2021-01-13 03:00:00 -1.3 110 Sudoeste -- -- 0 950 -- 83
2021-01-13 02:00:00 -0.4 0 Calma -- -- 0 950.3 -- 80
2021-01-13 01:00:00 -0.3 0 Calma -- -- 0 950.7 -- 80
2021-01-13 00:00:00 0 0 Calma -- -- 0 951.2 -- 77
2021-01-12 23:00:00 0.9 0 Calma -- -- 0 950.9 -- 73
2021-01-12 22:00:00 1.9 0 Calma -- -- 0 951 -- 71
2021-01-12 21:00:00 2.8 0 Calma -- -- 0 950.8 -- 66
2021-01-12 20:00:00 4.2 0 Calma -- -- 0 950.6 -- 60
2021-01-12 19:00:00 5.3 0 Calma -- -- 0 950.3 -- 52
2021-01-12 18:00:00 9.4 0 Calma -- -- 0 951.1 -- 43
2021-01-12 17:00:00 10.4 0 Calma -- -- 0 951.1 -- 41
2021-01-12 16:00:00 10.1 0 Calma -- -- 0 950.6 -- 47
2021-01-12 15:00:00 9.4 0 Calma -- -- 0 950.3 -- 52
2021-01-12 14:00:00 7.5 0 Calma -- -- 0 950.1 -- 58
2021-01-12 13:00:00 5.7 0 Calma -- -- 0 950.4 -- 67
2021-01-12 12:00:00 3.2 0 Calma -- -- 0 950.6 -- 77
2021-01-12 11:00:00 1.2 0 Calma -- -- 0 950 -- 86
2021-01-12 10:00:00 -1.3 0 Calma -- -- 0 949.5 -- 93
2021-01-12 09:00:00 -2.9 0 Calma -- -- 0 948.7 -- 95
2021-01-12 08:00:00 -3.3 0 Calma -- -- 0 948.1 -- 94
2021-01-12 07:00:00 -2.5 0 Calma -- -- 0 947.6 -- 94
2021-01-12 06:00:00 -1.6 0 Calma -- -- 0 947 -- 95
2021-01-12 05:00:00 -2.3 0 Calma -- -- 0 946.6 -- 94
2021-01-12 04:00:00 -2.1 0 Calma -- -- 0 947 -- 93
2021-01-12 03:00:00 -1.7 0 Calma -- -- 0 946.8 -- 92
2021-01-12 02:00:00 -0.5 0 Calma -- -- 0 946.7 -- 92
2021-01-12 01:00:00 -0.4 0 Calma -- -- 0 946.4 -- 91
2021-01-12 00:00:00 -0.3 0 Calma -- -- 0 946.3 -- 88
2021-01-11 23:00:00 0.4 0 Calma -- -- 0 946.1 -- 85
2021-01-11 22:00:00 1.6 0 Calma -- -- 0 945.4 -- 80
2021-01-11 21:00:00 2.3 0 Calma -- -- 0 944.7 -- 79
2021-01-11 20:00:00 2.9 0 Calma -- -- 0 944.4 -- 77
2021-01-11 19:00:00 4.5 0 Calma -- -- 0 943.6 -- 74
2021-01-11 18:00:00 7.2 0 Calma -- -- 0 943.4 -- 61
2021-01-11 17:00:00 8.1 0 Calma -- -- 0 942.8 -- 57
2021-01-11 16:00:00 9.4 0 Calma -- -- 0 942.4 -- 51
2021-01-11 15:00:00 8.7 0 Calma -- -- 0 941.8 -- 54
2021-01-11 14:00:00 8.4 0 Calma -- -- 0 941.4 -- 54
2021-01-11 13:00:00 7.3 0 Calma -- -- 0 941.4 -- 63
2021-01-11 12:00:00 5.5 0 Calma -- -- 0 941.2 -- 71
2021-01-11 11:00:00 3.3 0 Calma -- -- 0 940.5 -- 76
2021-01-11 10:00:00 0.7 0 Calma -- -- 0 939.2 -- 92
2021-01-11 09:00:00 -1.4 0 Calma -- -- 0 938 -- 92
2021-01-11 08:00:00 -0.9 0 Calma -- -- 0 937.6 -- 91
2021-01-11 07:00:00 -0.4 0 Calma -- -- 0 937 -- 91
2021-01-11 06:00:00 -0.1 0 Calma -- -- 0 936.6 -- 88
2021-01-11 05:00:00 0.7 0 Calma -- -- 0 936.7 -- 86
2021-01-11 04:00:00 0.3 0 Calma -- -- 0 936.7 -- 88
2021-01-11 03:00:00 0.5 0 Calma -- -- 0 936.5 -- 87
2021-01-11 02:00:00 0.8 0 Calma -- -- 0 935.7 -- 90
2021-01-11 01:00:00 0.9 83 Sudoeste -- -- 0 936.1 -- 89
2021-01-11 00:00:00 1.7 0 Calma -- -- 0 935.9 -- 87
2021-01-10 23:00:00 2.4 0 Calma -- -- 0 935.5 -- 86
2021-01-10 22:00:00 2.7 0 Calma -- -- 0 935.3 -- 87
2021-01-10 21:00:00 3 0 Calma -- -- 0 935.1 -- 87
2021-01-10 20:00:00 4 0 Calma -- -- 0 934.7 -- 81
2021-01-10 19:00:00 5.4 0 Calma -- -- 0 934 -- 72
2021-01-10 18:00:00 8.4 0 Calma -- -- 0 934.4 -- 46
2021-01-10 17:00:00 10.4 0 Calma -- -- 0 933.8 -- 42
2021-01-10 16:00:00 10.2 0 Calma -- -- 0 933 -- 46
2021-01-10 15:00:00 9.5 0 Calma -- -- 0 932.6 -- 49
2021-01-10 14:00:00 8.8 0 Calma -- -- 0 932.3 -- 51
2021-01-10 13:00:00 8.2 0 Calma -- -- 0 932.2 -- 55
2021-01-10 12:00:00 7.2 0 Calma -- -- 0 932.2 -- 68
2021-01-10 11:00:00 4.5 0 Calma -- -- 0 931.5 -- 85
2021-01-10 10:00:00 1.7 0 Calma -- -- 0 930.2 -- 94
2021-01-10 09:00:00 0.1 0 Calma -- -- 0 929.6 -- 94
2021-01-10 08:00:00 1 0 Calma -- -- 0 928.7 -- 94
2021-01-10 07:00:00 0.8 0 Calma -- -- 0 928.3 -- 94
2021-01-10 06:00:00 1 0 Calma -- -- 0 927.8 -- 93
2021-01-10 05:00:00 1.5 0 Calma -- -- 0 927.3 -- 86
2021-01-10 04:00:00 1.2 0 Calma -- -- 0 928.5 -- 87
2021-01-10 03:00:00 1.4 0 Calma -- -- 0 927 -- 83
2021-01-10 02:00:00 0.7 0 Calma -- -- 0 926.7 -- 91
2021-01-10 01:00:00 0.3 0 Calma -- -- 0 926.9 -- 92
2021-01-10 00:00:00 0.1 0 Calma -- -- 0 927.1 -- 93
2021-01-09 23:00:00 0.5 8 Sudoeste 75 Sudoeste 0 927 -- 93
2021-01-09 22:00:00 1 0 Calma -- -- 0 927.3 -- 90
2021-01-09 21:00:00 1.9 0 Calma -- -- 0 927.6 -- 87
2021-01-09 20:00:00 2.4 0 Calma -- -- 0 927.7 -- 86
2021-01-09 19:00:00 3.9 0 Calma -- -- 0 927.5 -- 77
2021-01-09 18:00:00 5.8 0 Calma -- -- 0 927.4 -- 70
2021-01-09 17:00:00 6.5 0 Calma -- -- 0 926.9 -- 68
2021-01-09 16:00:00 6.2 0 Calma -- -- 0 926.3 -- 74
2021-01-09 15:00:00 5.1 0 Calma -- -- 0 925.6 -- 82
2021-01-09 14:00:00 3.6 0 Calma -- -- 0 925.7 -- 93
2021-01-09 13:00:00 3.6 0 Calma -- -- 0 925.7 -- 95
2021-01-09 12:00:00 4 0 Calma -- -- 0.1 925.9 -- 97
2021-01-09 11:00:00 4.4 0 Calma -- -- 1 926.2 -- 97
2021-01-09 10:00:00 5.6 0 Calma -- -- 0.7 925.5 -- 95
2021-01-09 09:00:00 5.8 0 Calma -- -- 0.6 924.5 -- 95
2021-01-09 08:00:00 6 0 Calma -- -- 1.2 924.3 -- 95
2021-01-09 07:00:00 6.1 0 Calma -- -- 1.5 923.9 -- 95
2021-01-09 06:00:00 5.8 0 Calma -- -- 2 923.2 -- 95
2021-01-09 05:00:00 5.6 0 Calma -- -- 0.5 923.5 -- 94
2021-01-09 04:00:00 6 0 Calma -- -- 2.1 923.6 -- 94
2021-01-09 03:00:00 5.4 0 Calma -- -- 0 922.5 -- 91
2021-01-09 02:00:00 5.9 0 Calma -- -- 1.6 922.3 -- 89
2021-01-09 01:00:00 6.4 0 Calma -- -- 2.8 924 -- 86
2021-01-09 00:00:00 6.9 0 Calma -- -- 3.9 923.8 -- 83
2021-01-08 23:00:00 7.7 0 Calma -- -- 0.3 923.6 -- 71
2021-01-08 22:00:00 8.3 0 Calma -- -- 0.2 922.7 -- 67
2021-01-08 21:00:00 9 0 Calma -- -- 0 923.9 -- 61
2021-01-08 20:00:00 9.1 0 Calma -- -- 0 924.1 -- 58
2021-01-08 19:00:00 9.6 0 Calma -- -- 0 924.5 -- 56
2021-01-08 18:00:00 10.1 0 Calma -- -- 0 924.3 -- 57
2021-01-08 17:00:00 10.2 0 Calma -- -- 0 924.4 -- 56
2021-01-08 16:00:00 9.9 0 Calma -- -- 0 925.6 -- 61
2021-01-08 15:00:00 9.1 0 Calma -- -- 0 925.5 -- 66
2021-01-08 14:00:00 7.9 0 Calma -- -- 0 925.8 -- 74
2021-01-08 13:00:00 7.4 0 Calma -- -- 0 926.3 -- 77
2021-01-08 12:00:00 6.1 0 Calma -- -- 0.2 927.7 -- 86
2021-01-08 11:00:00 5.3 0 Calma -- -- 0.1 927.9 -- 91
2021-01-08 10:00:00 4.9 0 Calma -- -- 0.2 928.7 -- 89
2021-01-08 09:00:00 5 0 Calma -- -- 0 927.8 -- 85
2021-01-08 08:00:00 4.5 0 Calma -- -- 0 927.2 -- 87
2021-01-08 07:00:00 3.9 0 Calma -- -- 0 927.1 -- 92
2021-01-08 06:00:00 3.5 0 Calma -- -- 0.2 928 -- 94
2021-01-08 05:00:00 3.1 0 Calma -- -- 0 928.8 -- 94
2021-01-08 04:00:00 3 0 Calma -- -- 0.8 929.5 -- 94
2021-01-08 03:00:00 3.1 0 Calma -- -- 0.8 930.2 -- 94
2021-01-08 02:00:00 3.2 0 Calma -- -- 0.5 930 -- 93
2021-01-08 01:00:00 3.4 0 Calma -- -- 0.5 930.3 -- 92
2021-01-08 00:00:00 3.8 0 Calma -- -- 0.2 930.4 -- 92
2021-01-07 23:00:00 3.7 0 Calma -- -- 0.1 930.4 -- 96
2021-01-07 22:00:00 3.7 0 Calma -- -- 0.1 930.6 -- 97
2021-01-07 21:00:00 3.7 0 Calma -- -- 0 931.1 -- 96
2021-01-07 20:00:00 3.6 0 Calma -- -- 0.1 931.4 -- 96
2021-01-07 19:00:00 3.7 0 Calma -- -- 0.3 931.5 -- 95
2021-01-07 18:00:00 3.8 0 Calma -- -- 0.7 931.7 -- 95
2021-01-07 17:00:00 4.1 0 Calma -- -- 0.8 931.4 -- 95
2021-01-07 16:00:00 4.4 0 Calma -- -- 0.8 930.8 -- 94
2021-01-07 15:00:00 4.5 0 Calma -- -- 1.1 930.3 -- 93
2021-01-07 14:00:00 4.7 0 Calma -- -- 0.7 930.5 -- 93
2021-01-07 13:00:00 4.7 0 Calma -- -- 0 929.9 -- 92
2021-01-07 12:00:00 4.2 0 Calma -- -- 0.2 930.3 -- 92
2021-01-07 11:00:00 3.7 0 Calma -- -- 0.5 930.7 -- 91
2021-01-07 10:00:00 3.8 0 Calma -- -- 0.1 930.3 -- 91
2021-01-07 09:00:00 3.4 0 Calma -- -- 0 929.4 -- 92
2021-01-07 08:00:00 3.3 0 Calma -- -- 0.1 929.4 -- 92
2021-01-07 07:00:00 3.5 0 Calma -- -- 0.1 929.3 -- 91
2021-01-07 06:00:00 3.7 0 Calma -- -- 0.3 929.2 -- 89
2021-01-07 05:00:00 4.3 0 Calma -- -- 0.1 929.4 -- 86
2021-01-07 04:00:00 3.8 0 Calma -- -- 0 929.5 -- 92
2021-01-07 03:00:00 3.9 0 Calma -- -- 0.2 930.1 -- 94
2021-01-07 02:00:00 4 0 Calma -- -- 0 930.8 -- 93
2021-01-07 01:00:00 4.3 0 Calma -- -- 0.1 931.4 -- 92
2021-01-07 00:00:00 5.2 0 Calma -- -- 0.1 932.2 -- 85
2021-01-06 23:00:00 5.7 0 Calma -- -- 0 932.4 -- 76
2021-01-06 22:00:00 7.9 0 Calma -- -- 0 932.6 -- 56
2021-01-06 21:00:00 7 0 Calma -- -- 0 932.8 -- 58
2021-01-06 20:00:00 6.2 0 Calma -- -- 0 933.1 -- 62
2021-01-06 19:00:00 6.5 0 Calma -- -- 0 933.1 -- 62
2021-01-06 18:00:00 6.8 0 Calma -- -- 0 933.4 -- 63
2021-01-06 17:00:00 8.1 0 Calma -- -- 0 933.6 -- 55
2021-01-06 16:00:00 8.5 0 Calma -- -- 0 933.4 -- 52
2021-01-06 15:00:00 7.9 0 Calma -- -- 0 933.5 -- 52
2021-01-06 14:00:00 7.5 0 Calma -- -- 0 933.5 -- 54
2021-01-06 13:00:00 5.9 0 Calma -- -- 0 934.2 -- 62
2021-01-06 12:00:00 4.7 0 Calma -- -- 0 934.2 -- 68
2021-01-06 11:00:00 2.4 0 Calma -- -- 0 934.4 -- 75
2021-01-06 10:00:00 1.3 0 Calma -- -- 0 933.6 -- 76
2021-01-06 09:00:00 0.1 0 Calma -- -- 0 933.2 -- 81
2021-01-06 08:00:00 0.8 0 Calma -- -- 0 932.5 -- 77
2021-01-06 07:00:00 0.9 0 Calma -- -- 0 932 -- 79
2021-01-06 06:00:00 1.1 0 Calma -- -- 0 931.6 -- 77
2021-01-06 05:00:00 0.7 0 Calma -- -- 0 931.6 -- 81
2021-01-06 04:00:00 0.7 0 Calma -- -- 0 931.7 -- 81
2021-01-06 03:00:00 1.5 0 Calma -- -- 0 931.5 -- 75
2021-01-06 02:00:00 1.5 0 Calma -- -- 0 931 -- 76
2021-01-06 01:00:00 1 0 Calma -- -- 0 931.4 -- 75
2021-01-06 00:00:00 1.4 0 Calma -- -- 0 931.7 -- 73
2021-01-05 23:00:00 1.7 0 Calma -- -- 0 931.5 -- 71
2021-01-05 22:00:00 2.4 0 Calma -- -- 0 931.7 -- 69
2021-01-05 21:00:00 2.4 0 Calma -- -- 0 932.4 -- 65
2021-01-05 20:00:00 3 0 Calma -- -- 0 932.2 -- 57
2021-01-05 19:00:00 4.9 0 Calma -- -- 0 932 -- 51
2021-01-05 18:00:00 6.1 0 Calma -- -- 0 931.9 -- 48
2021-01-05 17:00:00 7.5 0 Calma -- -- 0 932.6 -- 46
2021-01-05 16:00:00 7.9 0 Calma -- -- 0 933 -- 45
2021-01-05 15:00:00 8 0 Calma -- -- 0 933.1 -- 51
2021-01-05 14:00:00 7.5 0 Calma -- -- 0 933.1 -- 56
2021-01-05 13:00:00 6 0 Calma -- -- 0 933.6 -- 64
2021-01-05 12:00:00 4 0 Calma -- -- 0 934 -- 75
2021-01-05 11:00:00 2.4 0 Calma -- -- 0 934.5 -- 88
2021-01-05 10:00:00 0.3 0 Calma -- -- 0 934.2 -- 96
2021-01-05 09:00:00 0 0 Calma -- -- 0 933.7 -- 96
2021-01-05 08:00:00 0.3 0 Calma -- -- 0 933.3 -- 96
2021-01-05 07:00:00 0.4 0 Calma -- -- 0 933.2 -- 96
2021-01-05 06:00:00 1 0 Calma -- -- 0 932.8 -- 97
2021-01-05 05:00:00 1.1 0 Calma -- -- 0 932.7 -- 96
2021-01-05 04:00:00 0.9 0 Calma -- -- 0 933.3 -- 95
2021-01-05 03:00:00 0.7 0 Calma -- -- 0 933.3 -- 94
2021-01-05 02:00:00 1.7 0 Calma -- -- 0 933.7 -- 94
2021-01-05 01:00:00 1.7 0 Calma -- -- 0 934.1 -- 92
2021-01-05 00:00:00 2.8 0 Calma -- -- 0 934.5 -- 89
2021-01-04 23:00:00 3.3 0 Calma -- -- 0 934.4 -- 88
2021-01-04 22:00:00 3.3 0 Calma -- -- 0 934.3 -- 88
2021-01-04 21:00:00 3.5 0 Calma -- -- 0 934.1 -- 86
2021-01-04 20:00:00 4 0 Calma -- -- 0 934.3 -- 82
2021-01-04 19:00:00 4.6 0 Calma -- -- 0 933.9 -- 77
2021-01-04 18:00:00 4.2 0 Calma -- -- 0 933.6 -- 79
2021-01-04 17:00:00 4.2 0 Calma -- -- 0 934.3 -- 79
2021-01-04 16:00:00 4.2 0 Calma -- -- 0 934.1 -- 80
2021-01-04 15:00:00 4.1 0 Calma -- -- 0 934.3 -- 79
2021-01-04 14:00:00 3.7 0 Calma -- -- 0 934.4 -- 80
2021-01-04 13:00:00 3.9 0 Calma -- -- 0 934.9 -- 81
2021-01-04 12:00:00 3.1 0 Calma -- -- 0 936 -- 82
2021-01-04 11:00:00 2.4 0 Calma -- -- 0 936.3 -- 85
2021-01-04 10:00:00 1.8 0 Calma -- -- 0 936.2 -- 85
2021-01-04 09:00:00 1.3 0 Calma -- -- 0 935.9 -- 83
2021-01-04 08:00:00 1.7 0 Calma -- -- 0 935.5 -- 82
2021-01-04 07:00:00 1.1 0 Calma -- -- 0 935.5 -- 82
2021-01-04 06:00:00 1.3 0 Calma -- -- 0 935.5 -- 80
2021-01-04 05:00:00 2.3 0 Calma -- -- 0 936 -- 76
2021-01-04 04:00:00 2.1 0 Calma -- -- 0 936.3 -- 76
2021-01-04 03:00:00 2 0 Calma -- -- 0 936.4 -- 77
2021-01-04 02:00:00 3 0 Calma -- -- 0 936.8 -- 73
2021-01-04 01:00:00 2 0 Calma -- -- 0 937.1 -- 73
2021-01-04 00:00:00 2 0 Calma -- -- 0 937.4 -- 71
2021-01-03 23:00:00 2.2 0 Calma -- -- 0 937.8 -- 68
2021-01-03 22:00:00 3.1 0 Calma -- -- 0 937.9 -- 67
2021-01-03 21:00:00 2 0 Calma -- -- 0 938 -- 64
2021-01-03 20:00:00 3.1 0 Calma -- -- 0 937.7 -- 58
2021-01-03 19:00:00 4.2 0 Calma -- -- 0 937.7 -- 51
2021-01-03 18:00:00 5.4 0 Calma -- -- 0 938.1 -- 45
2021-01-03 17:00:00 7.4 0 Calma -- -- 0 938.2 -- 42
2021-01-03 16:00:00 7.3 0 Calma -- -- 0 938.5 -- 43
2021-01-03 15:00:00 6.9 0 Calma -- -- 0 938.6 -- 45
2021-01-03 14:00:00 6.9 0 Calma -- -- 0 938.5 -- 48
2021-01-03 13:00:00 5.9 0 Calma -- -- 0 939.1 -- 54
2021-01-03 12:00:00 3.7 0 Calma -- -- 0 939.3 -- 70
2021-01-03 11:00:00 1.5 0 Calma -- -- 0 938.6 -- 82
2021-01-03 10:00:00 -0.4 0 Calma -- -- 0 938.2 -- 91
2021-01-03 09:00:00 -3.3 0 Calma -- -- 0 938 -- 92
2021-01-03 08:00:00 -3.2 0 Calma -- -- 0 937.9 -- 92
2021-01-03 07:00:00 -3 0 Calma -- -- -- 937.5 -- 91
2021-01-03 06:00:00 -2.6 0 Calma -- -- 0 936.9 -- 90
2021-01-03 05:00:00 -2.4 0 Calma -- -- 0 937.2 -- 89
2021-01-03 04:00:00 -1.7 0 Calma -- -- 0 937.3 -- 85
2021-01-03 03:00:00 -1.4 0 Calma -- -- 0 937.3 -- 83
2021-01-03 02:00:00 -0.5 0 Calma -- -- 0 937.4 -- 79
2021-01-03 01:00:00 0.2 0 Calma -- -- 0 937.5 -- 73
2021-01-03 00:00:00 1.3 0 Calma -- -- 0 937.6 -- 69
2021-01-02 23:00:00 1.9 0 Calma -- -- 0 937.5 -- 68
2021-01-02 22:00:00 3.2 0 Calma -- -- 0 937.6 -- 73
2021-01-02 21:00:00 3.9 0 Calma -- -- 0 937.2 -- 75
2021-01-02 20:00:00 4.1 0 Calma -- -- 0 936.9 -- 73
2021-01-02 19:00:00 4.1 0 Calma -- -- 0 936.5 -- 69
2021-01-02 18:00:00 4.8 0 Calma -- -- 0 936.1 -- 66
2021-01-02 17:00:00 5.1 0 Calma -- -- 0 936.3 -- 62
2021-01-02 16:00:00 5.4 0 Calma -- -- 0 935.6 -- 62
2021-01-02 15:00:00 5.4 0 Calma -- -- 0 935.6 -- 62
2021-01-02 14:00:00 4.8 0 Calma -- -- 0 935.9 -- 63